sensor_id;sensor_type;location;lat;lon;timestamp;noise_LAeq;noise_LA_min;noise_LA_max;noise_LA01;noise_LA95
75467;Laerm;64050;50.634;3.062;2022-11-23T00:02:11;42.11;36.63;52.71;;
75467;Laerm;64050;50.634;3.062;2022-11-23T00:04:36;41.88;36.84;51.00;;
75467;Laerm;64050;50.634;3.062;2022-11-23T00:07:01;42.40;36.05;52.72;;
75467;Laerm;64050;50.634;3.062;2022-11-23T00:09:26;47.51;43.91;56.93;;
75467;Laerm;64050;50.634;3.062;2022-11-23T00:11:52;47.26;43.46;52.51;;
75467;Laerm;64050;50.634;3.062;2022-11-23T00:14:17;44.08;36.81;51.68;;
75467;Laerm;64050;50.634;3.062;2022-11-23T00:16:42;40.98;36.28;51.29;;
75467;Laerm;64050;50.634;3.062;2022-11-23T00:19:07;39.20;35.62;52.93;;
75467;Laerm;64050;50.634;3.062;2022-11-23T00:21:32;39.80;36.06;53.84;;
75467;Laerm;64050;50.634;3.062;2022-11-23T00:23:58;45.01;36.81;62.38;;
75467;Laerm;64050;50.634;3.062;2022-11-23T00:26:23;45.05;39.89;52.55;;
75467;Laerm;64050;50.634;3.062;2022-11-23T00:28:48;47.31;43.15;57.28;;
75467;Laerm;64050;50.634;3.062;2022-11-23T00:31:15;46.17;37.13;53.36;;
75467;Laerm;64050;50.634;3.062;2022-11-23T00:33:40;39.73;36.54;50.30;;
75467;Laerm;64050;50.634;3.062;2022-11-23T00:36:07;43.30;36.79;59.32;;
75467;Laerm;64050;50.634;3.062;2022-11-23T00:38:32;42.07;36.46;53.32;;
75467;Laerm;64050;50.634;3.062;2022-11-23T00:41:02;46.52;36.72;57.14;;
75467;Laerm;64050;50.634;3.062;2022-11-23T00:43:28;46.95;43.61;54.21;;
75467;Laerm;64050;50.634;3.062;2022-11-23T00:48:28;46.13;36.75;53.77;;
75467;Laerm;64050;50.634;3.062;2022-11-23T00:50:53;39.89;36.48;54.17;;
75467;Laerm;64050;50.634;3.062;2022-11-23T00:53:18;39.30;36.43;49.98;;
75467;Laerm;64050;50.634;3.062;2022-11-23T00:55:50;39.74;36.02;52.76;;
75467;Laerm;64050;50.634;3.062;2022-11-23T00:58:15;45.58;36.47;52.08;;
75467;Laerm;64050;50.634;3.062;2022-11-23T01:00:40;46.94;43.79;54.10;;
75467;Laerm;64050;50.634;3.062;2022-11-23T01:03:06;46.98;43.72;52.59;;
75467;Laerm;64050;50.634;3.062;2022-11-23T01:05:34;47.16;43.78;51.81;;
75467;Laerm;64050;50.634;3.062;2022-11-23T01:08:01;44.63;36.18;53.26;;
75467;Laerm;64050;50.634;3.062;2022-11-23T01:10:26;41.56;35.88;51.15;;
75467;Laerm;64050;50.634;3.062;2022-11-23T01:12:51;39.23;36.28;50.72;;
75467;Laerm;64050;50.634;3.062;2022-11-23T01:15:17;40.54;37.07;49.86;;
75467;Laerm;64050;50.634;3.062;2022-11-23T01:17:42;40.52;37.07;51.43;;
75467;Laerm;64050;50.634;3.062;2022-11-23T01:20:07;42.77;36.79;51.12;;
75467;Laerm;64050;50.634;3.062;2022-11-23T01:22:33;47.11;42.99;52.24;;
75467;Laerm;64050;50.634;3.062;2022-11-23T01:24:58;46.92;43.45;52.01;;
75467;Laerm;64050;50.634;3.062;2022-11-23T01:27:23;48.00;36.77;61.92;;
75467;Laerm;64050;50.634;3.062;2022-11-23T01:29:48;38.84;36.14;47.57;;
75467;Laerm;64050;50.634;3.062;2022-11-23T01:32:13;41.63;36.78;50.54;;
75467;Laerm;64050;50.634;3.062;2022-11-23T01:34:39;39.36;36.07;52.85;;
75467;Laerm;64050;50.634;3.062;2022-11-23T01:37:04;38.81;36.05;51.56;;
75467;Laerm;64050;50.634;3.062;2022-11-23T01:39:29;43.82;36.39;51.05;;
75467;Laerm;64050;50.634;3.062;2022-11-23T01:41:54;47.09;43.38;51.96;;
75467;Laerm;64050;50.634;3.062;2022-11-23T01:46:45;43.53;36.03;51.16;;
75467;Laerm;64050;50.634;3.062;2022-11-23T01:49:10;43.22;36.99;57.95;;
75467;Laerm;64050;50.634;3.062;2022-11-23T01:51:36;39.72;36.51;51.14;;
75467;Laerm;64050;50.634;3.062;2022-11-23T01:54:06;41.69;36.78;51.15;;
75467;Laerm;64050;50.634;3.062;2022-11-23T01:56:34;39.00;35.71;51.04;;
75467;Laerm;64050;50.634;3.062;2022-11-23T01:59:02;45.84;36.84;52.01;;
75467;Laerm;64050;50.634;3.062;2022-11-23T02:01:28;46.92;43.79;50.42;;
75467;Laerm;64050;50.634;3.062;2022-11-23T02:03:54;46.90;43.33;52.92;;
75467;Laerm;64050;50.634;3.062;2022-11-23T02:06:19;40.98;36.00;49.57;;
75467;Laerm;64050;50.634;3.062;2022-11-23T02:08:46;39.36;35.73;51.42;;
75467;Laerm;64050;50.634;3.062;2022-11-23T02:11:12;40.31;36.15;52.97;;
75467;Laerm;64050;50.634;3.062;2022-11-23T02:13:38;39.76;36.21;50.48;;
75467;Laerm;64050;50.634;3.062;2022-11-23T02:16:04;41.98;36.18;50.44;;
75467;Laerm;64050;50.634;3.062;2022-11-23T02:18:29;47.07;43.53;53.18;;
75467;Laerm;64050;50.634;3.062;2022-11-23T02:20:55;46.80;43.40;53.21;;
75467;Laerm;64050;50.634;3.062;2022-11-23T02:24:09;45.58;35.94;52.75;;
75467;Laerm;64050;50.634;3.062;2022-11-23T02:26:12;39.65;36.08;51.36;;
75467;Laerm;64050;50.634;3.062;2022-11-23T02:28:39;41.62;36.08;52.12;;
75467;Laerm;64050;50.634;3.062;2022-11-23T02:31:06;40.08;35.95;50.72;;
75467;Laerm;64050;50.634;3.062;2022-11-23T02:33:32;39.63;35.76;51.30;;
75467;Laerm;64050;50.634;3.062;2022-11-23T02:35:58;39.44;36.18;50.72;;
75467;Laerm;64050;50.634;3.062;2022-11-23T02:38:24;46.01;36.85;51.82;;
75467;Laerm;64050;50.634;3.062;2022-11-23T02:40:51;45.28;36.49;51.18;;
75467;Laerm;64050;50.634;3.062;2022-11-23T02:43:16;39.53;36.35;50.29;;
75467;Laerm;64050;50.634;3.062;2022-11-23T02:45:43;39.67;36.80;47.72;;
75467;Laerm;64050;50.634;3.062;2022-11-23T02:48:09;46.62;37.11;64.47;;
75467;Laerm;64050;50.634;3.062;2022-11-23T02:50:34;47.36;43.91;56.15;;
75467;Laerm;64050;50.634;3.062;2022-11-23T02:53:00;45.66;38.22;51.08;;
75467;Laerm;64050;50.634;3.062;2022-11-23T02:55:25;45.10;37.76;50.82;;
75467;Laerm;64050;50.634;3.062;2022-11-23T02:57:50;47.14;43.83;57.11;;
75467;Laerm;64050;50.634;3.062;2022-11-23T03:00:16;47.27;44.20;54.44;;
75467;Laerm;64050;50.634;3.062;2022-11-23T03:02:41;44.88;37.44;51.38;;
75467;Laerm;64050;50.634;3.062;2022-11-23T03:05:07;45.89;37.28;49.57;;
75467;Laerm;64050;50.634;3.062;2022-11-23T03:07:32;47.13;43.94;52.12;;
75467;Laerm;64050;50.634;3.062;2022-11-23T03:09:58;46.90;43.91;53.59;;
75467;Laerm;64050;50.634;3.062;2022-11-23T03:12:23;44.97;38.68;52.25;;
75467;Laerm;64050;50.634;3.062;2022-11-23T03:14:48;40.03;37.21;45.24;;
75467;Laerm;64050;50.634;3.062;2022-11-23T03:17:14;40.15;36.97;44.77;;
75467;Laerm;64050;50.634;3.062;2022-11-23T03:19:39;40.82;37.11;46.80;;
75467;Laerm;64050;50.634;3.062;2022-11-23T03:22:04;42.36;37.59;49.66;;
75467;Laerm;64050;50.634;3.062;2022-11-23T03:24:29;47.43;43.98;50.01;;
75467;Laerm;64050;50.634;3.062;2022-11-23T03:26:55;46.88;43.77;49.74;;
75467;Laerm;64050;50.634;3.062;2022-11-23T03:29:20;46.00;37.04;49.12;;
75467;Laerm;64050;50.634;3.062;2022-11-23T03:31:49;40.05;36.78;45.56;;
75467;Laerm;64050;50.634;3.062;2022-11-23T03:34:14;41.00;37.48;45.43;;
75467;Laerm;64050;50.634;3.062;2022-11-23T03:36:39;40.72;36.90;51.97;;
75467;Laerm;64050;50.634;3.062;2022-11-23T03:39:05;43.53;37.17;64.34;;
75467;Laerm;64050;50.634;3.062;2022-11-23T03:41:30;44.42;38.06;50.83;;
75467;Laerm;64050;50.634;3.062;2022-11-23T03:43:55;47.43;44.57;53.91;;
75467;Laerm;64050;50.634;3.062;2022-11-23T03:46:20;47.50;43.95;52.30;;
75467;Laerm;64050;50.634;3.062;2022-11-23T03:48:45;43.28;36.88;51.20;;
75467;Laerm;64050;50.634;3.062;2022-11-23T03:51:11;40.64;36.65;54.42;;
75467;Laerm;64050;50.634;3.062;2022-11-23T03:53:36;43.66;37.45;61.27;;
75467;Laerm;64050;50.634;3.062;2022-11-23T03:56:01;40.66;37.05;52.10;;
75467;Laerm;64050;50.634;3.062;2022-11-23T03:58:26;42.03;37.89;49.38;;
75467;Laerm;64050;50.634;3.062;2022-11-23T04:00:53;45.27;37.76;50.61;;
75467;Laerm;64050;50.634;3.062;2022-11-23T04:03:18;47.15;44.02;51.07;;
75467;Laerm;64050;50.634;3.062;2022-11-23T04:05:43;46.99;43.73;64.14;;
75467;Laerm;64050;50.634;3.062;2022-11-23T04:08:08;42.86;37.09;49.16;;
75467;Laerm;64050;50.634;3.062;2022-11-23T04:10:34;42.73;38.28;54.24;;
75467;Laerm;64050;50.634;3.062;2022-11-23T04:12:59;40.53;37.13;45.39;;
75467;Laerm;64050;50.634;3.062;2022-11-23T04:15:24;41.40;38.04;46.18;;
75467;Laerm;64050;50.634;3.062;2022-11-23T04:17:49;41.82;38.61;47.51;;
75467;Laerm;64050;50.634;3.062;2022-11-23T04:20:14;46.37;38.98;50.61;;
75467;Laerm;64050;50.634;3.062;2022-11-23T04:22:40;47.49;43.90;59.37;;
75467;Laerm;64050;50.634;3.062;2022-11-23T04:25:05;47.54;40.05;54.31;;
75467;Laerm;64050;50.634;3.062;2022-11-23T04:27:30;44.58;39.26;53.09;;
75467;Laerm;64050;50.634;3.062;2022-11-23T04:29:56;42.58;38.88;47.10;;
75467;Laerm;64050;50.634;3.062;2022-11-23T04:32:21;42.74;38.60;48.91;;
75467;Laerm;64050;50.634;3.062;2022-11-23T04:34:46;42.56;38.82;47.85;;
75467;Laerm;64050;50.634;3.062;2022-11-23T04:37:11;42.47;38.62;47.62;;
75467;Laerm;64050;50.634;3.062;2022-11-23T04:39:37;47.06;39.87;66.27;;
75467;Laerm;64050;50.634;3.062;2022-11-23T04:42:02;48.11;44.83;51.49;;
75467;Laerm;64050;50.634;3.062;2022-11-23T04:44:27;47.31;41.47;50.02;;
75467;Laerm;64050;50.634;3.062;2022-11-23T04:46:52;44.21;39.95;53.41;;
75467;Laerm;64050;50.634;3.062;2022-11-23T04:49:17;46.66;40.69;59.77;;
75467;Laerm;64050;50.634;3.062;2022-11-23T04:51:43;44.41;39.63;53.00;;
75467;Laerm;64050;50.634;3.062;2022-11-23T04:54:08;44.56;41.17;47.55;;
75467;Laerm;64050;50.634;3.062;2022-11-23T04:56:33;43.74;40.09;47.16;;
75467;Laerm;64050;50.634;3.062;2022-11-23T04:58:58;47.10;40.97;54.05;;
75467;Laerm;64050;50.634;3.062;2022-11-23T05:01:23;48.43;45.36;55.55;;
75467;Laerm;64050;50.634;3.062;2022-11-23T05:03:49;48.37;43.55;52.76;;
75467;Laerm;64050;50.634;3.062;2022-11-23T05:06:14;45.85;41.07;52.76;;
75467;Laerm;64050;50.634;3.062;2022-11-23T05:08:39;44.59;40.71;48.50;;
75467;Laerm;64050;50.634;3.062;2022-11-23T05:11:04;45.73;42.05;52.72;;
75467;Laerm;64050;50.634;3.062;2022-11-23T05:13:30;45.96;41.33;53.16;;
75467;Laerm;64050;50.634;3.062;2022-11-23T05:15:55;47.00;40.97;54.10;;
75467;Laerm;64050;50.634;3.062;2022-11-23T05:18:20;47.90;42.16;64.99;;
75467;Laerm;64050;50.634;3.062;2022-11-23T05:20:45;49.00;45.12;53.55;;
75467;Laerm;64050;50.634;3.062;2022-11-23T05:23:11;48.50;44.06;52.41;;
75467;Laerm;64050;50.634;3.062;2022-11-23T05:25:36;47.03;42.70;64.06;;
75467;Laerm;64050;50.634;3.062;2022-11-23T05:28:01;54.53;43.20;64.41;;
75467;Laerm;64050;50.634;3.062;2022-11-23T05:30:27;49.14;43.97;63.48;;
75467;Laerm;64050;50.634;3.062;2022-11-23T05:32:52;46.58;42.38;61.10;;
75467;Laerm;64050;50.634;3.062;2022-11-23T05:35:17;46.67;42.71;53.97;;
75467;Laerm;64050;50.634;3.062;2022-11-23T05:37:42;48.14;43.18;53.09;;
75467;Laerm;64050;50.634;3.062;2022-11-23T05:40:08;49.06;46.00;52.51;;
75467;Laerm;64050;50.634;3.062;2022-11-23T05:42:33;49.71;44.04;56.94;;
75467;Laerm;64050;50.634;3.062;2022-11-23T05:44:58;47.72;43.93;55.20;;
75467;Laerm;64050;50.634;3.062;2022-11-23T05:47:24;47.29;43.98;53.31;;
75467;Laerm;64050;50.634;3.062;2022-11-23T05:49:49;49.15;44.20;57.92;;
75467;Laerm;64050;50.634;3.062;2022-11-23T05:52:15;47.34;43.08;52.80;;
75467;Laerm;64050;50.634;3.062;2022-11-23T05:54:40;46.36;43.31;49.83;;
75467;Laerm;64050;50.634;3.062;2022-11-23T05:57:05;49.40;43.99;52.80;;
75467;Laerm;64050;50.634;3.062;2022-11-23T05:59:30;49.51;45.49;54.20;;
75467;Laerm;64050;50.634;3.062;2022-11-23T06:01:56;48.31;42.79;56.49;;
75467;Laerm;64050;50.634;3.062;2022-11-23T06:04:21;45.55;41.92;57.73;;
75467;Laerm;64050;50.634;3.062;2022-11-23T06:06:46;46.59;43.20;53.56;;
75467;Laerm;64050;50.634;3.062;2022-11-23T06:09:11;48.11;43.86;56.18;;
75467;Laerm;64050;50.634;3.062;2022-11-23T06:11:36;47.57;43.58;56.49;;
75467;Laerm;64050;50.634;3.062;2022-11-23T06:14:02;46.38;42.99;52.03;;
75467;Laerm;64050;50.634;3.062;2022-11-23T06:16:27;49.04;46.05;55.13;;
75467;Laerm;64050;50.634;3.062;2022-11-23T06:18:52;49.64;45.44;56.79;;
75467;Laerm;64050;50.634;3.062;2022-11-23T06:21:17;47.50;43.75;58.44;;
75467;Laerm;64050;50.634;3.062;2022-11-23T06:23:43;48.33;44.32;55.66;;
75467;Laerm;64050;50.634;3.062;2022-11-23T06:26:08;47.77;42.79;69.46;;
75467;Laerm;64050;50.634;3.062;2022-11-23T06:28:33;54.50;43.24;81.76;;
75467;Laerm;64050;50.634;3.062;2022-11-23T06:31:01;49.71;44.97;69.25;;
75467;Laerm;64050;50.634;3.062;2022-11-23T06:33:27;46.79;43.01;59.84;;
75467;Laerm;64050;50.634;3.062;2022-11-23T06:38:17;48.99;46.04;58.03;;
75467;Laerm;64050;50.634;3.062;2022-11-23T06:40:43;49.68;43.35;63.37;;
75467;Laerm;64050;50.634;3.062;2022-11-23T06:43:08;47.85;43.13;62.34;;
75467;Laerm;64050;50.634;3.062;2022-11-23T06:45:33;46.27;43.09;57.28;;
75467;Laerm;64050;50.634;3.062;2022-11-23T06:47:58;49.20;42.36;61.33;;
75467;Laerm;64050;50.634;3.062;2022-11-23T06:50:24;49.89;42.95;70.88;;
75467;Laerm;64050;50.634;3.062;2022-11-23T06:52:52;46.17;42.50;55.38;;
75467;Laerm;64050;50.634;3.062;2022-11-23T06:55:17;47.14;42.54;61.51;;
75467;Laerm;64050;50.634;3.062;2022-11-23T06:57:43;46.10;42.43;63.97;;
75467;Laerm;64050;50.634;3.062;2022-11-23T07:00:08;50.13;45.06;64.93;;
75467;Laerm;64050;50.634;3.062;2022-11-23T07:02:35;48.90;43.12;62.00;;
75467;Laerm;64050;50.634;3.062;2022-11-23T07:05:00;47.06;44.03;53.63;;
75467;Laerm;64050;50.634;3.062;2022-11-23T07:07:25;49.86;43.35;62.34;;
75467;Laerm;64050;50.634;3.062;2022-11-23T07:09:51;50.87;46.45;63.69;;
75467;Laerm;64050;50.634;3.062;2022-11-23T07:12:16;49.54;46.20;60.75;;
75467;Laerm;64050;50.634;3.062;2022-11-23T07:14:41;49.47;46.57;53.96;;
75467;Laerm;64050;50.634;3.062;2022-11-23T07:17:06;51.26;46.81;67.27;;
75467;Laerm;64050;50.634;3.062;2022-11-23T07:19:32;51.33;47.79;73.18;;
75467;Laerm;64050;50.634;3.062;2022-11-23T07:21:57;50.28;46.49;68.36;;
75467;Laerm;64050;50.634;3.062;2022-11-23T07:24:22;50.46;46.04;62.64;;
75467;Laerm;64050;50.634;3.062;2022-11-23T07:26:47;50.56;46.98;58.68;;
75467;Laerm;64050;50.634;3.062;2022-11-23T07:29:13;54.57;48.11;63.49;;
75467;Laerm;64050;50.634;3.062;2022-11-23T07:31:38;51.95;48.09;73.66;;
75467;Laerm;64050;50.634;3.062;2022-11-23T07:34:03;51.97;43.71;72.78;;
75467;Laerm;64050;50.634;3.062;2022-11-23T07:36:29;55.86;45.06;77.49;;
75467;Laerm;64050;50.634;3.062;2022-11-23T07:38:54;57.75;44.33;77.33;;
75467;Laerm;64050;50.634;3.062;2022-11-23T07:41:19;59.98;44.52;79.95;;
75467;Laerm;64050;50.634;3.062;2022-11-23T07:43:44;50.08;46.33;55.84;;
75467;Laerm;64050;50.634;3.062;2022-11-23T07:46:10;50.59;47.14;56.06;;
75467;Laerm;64050;50.634;3.062;2022-11-23T07:48:35;49.87;46.97;54.56;;
75467;Laerm;64050;50.634;3.062;2022-11-23T07:51:00;50.09;46.84;66.86;;
75467;Laerm;64050;50.634;3.062;2022-11-23T07:53:25;49.57;43.01;60.75;;
75467;Laerm;64050;50.634;3.062;2022-11-23T07:55:54;48.90;44.56;64.22;;
75467;Laerm;64050;50.634;3.062;2022-11-23T07:58:19;50.99;45.90;61.09;;
75467;Laerm;64050;50.634;3.062;2022-11-23T08:00:44;57.69;48.02;82.12;;
75467;Laerm;64050;50.634;3.062;2022-11-23T08:03:11;59.66;45.11;82.36;;
75467;Laerm;64050;50.634;3.062;2022-11-23T08:05:37;61.81;44.61;83.03;;
75467;Laerm;64050;50.634;3.062;2022-11-23T08:08:02;60.55;48.33;83.57;;
75467;Laerm;64050;50.634;3.062;2022-11-23T08:10:28;59.31;44.39;82.22;;
75467;Laerm;64050;50.634;3.062;2022-11-23T08:12:57;67.11;45.31;79.84;;
75467;Laerm;64050;50.634;3.062;2022-11-23T08:15:23;60.98;56.50;81.18;;
75467;Laerm;64050;50.634;3.062;2022-11-23T08:17:48;66.10;55.98;77.30;;
75467;Laerm;64050;50.634;3.062;2022-11-23T08:20:17;66.08;54.00;91.61;;
75467;Laerm;64050;50.634;3.062;2022-11-23T08:22:43;67.73;54.05;88.79;;
75467;Laerm;64050;50.634;3.062;2022-11-23T08:25:08;63.08;53.82;74.49;;
75467;Laerm;64050;50.634;3.062;2022-11-23T08:27:33;59.72;52.87;77.27;;
75467;Laerm;64050;50.634;3.062;2022-11-23T08:29:59;57.19;48.62;71.58;;
75467;Laerm;64050;50.634;3.062;2022-11-23T08:32:24;61.02;48.28;79.70;;
75467;Laerm;64050;50.634;3.062;2022-11-23T08:34:49;63.00;54.95;78.87;;
75467;Laerm;64050;50.634;3.062;2022-11-23T08:37:14;64.47;55.23;82.58;;
75467;Laerm;64050;50.634;3.062;2022-11-23T08:39:39;57.63;52.04;73.20;;
75467;Laerm;64050;50.634;3.062;2022-11-23T08:42:05;63.70;54.34;81.14;;
75467;Laerm;64050;50.634;3.062;2022-11-23T08:44:30;63.05;53.49;81.25;;
75467;Laerm;64050;50.634;3.062;2022-11-23T08:46:55;58.23;52.94;73.13;;
75467;Laerm;64050;50.634;3.062;2022-11-23T08:49:20;61.40;54.81;79.76;;
75467;Laerm;64050;50.634;3.062;2022-11-23T08:51:45;60.01;53.18;82.64;;
75467;Laerm;64050;50.634;3.062;2022-11-23T08:54:11;56.14;48.72;68.34;;
75467;Laerm;64050;50.634;3.062;2022-11-23T08:56:36;58.29;48.83;79.42;;
75467;Laerm;64050;50.634;3.062;2022-11-23T08:59:01;56.79;48.88;69.36;;
75467;Laerm;64050;50.634;3.062;2022-11-23T09:01:26;55.71;50.65;69.98;;
75467;Laerm;64050;50.634;3.062;2022-11-23T09:03:51;58.62;49.75;78.84;;
75467;Laerm;64050;50.634;3.062;2022-11-23T09:06:18;62.07;56.08;74.46;;
75467;Laerm;64050;50.634;3.062;2022-11-23T09:08:44;64.86;55.88;86.72;;
75467;Laerm;64050;50.634;3.062;2022-11-23T09:11:11;63.56;57.07;79.90;;
75467;Laerm;64050;50.634;3.062;2022-11-23T09:13:36;63.13;55.92;82.41;;
75467;Laerm;64050;50.634;3.062;2022-11-23T09:16:02;63.01;55.89;80.55;;
75467;Laerm;64050;50.634;3.062;2022-11-23T09:18:28;62.51;53.34;85.76;;
75467;Laerm;64050;50.634;3.062;2022-11-23T09:20:57;56.95;52.34;73.83;;
75467;Laerm;64050;50.634;3.062;2022-11-23T09:23:23;55.54;49.27;68.33;;
75467;Laerm;64050;50.634;3.062;2022-11-23T09:25:51;55.19;50.41;75.91;;
75467;Laerm;64050;50.634;3.062;2022-11-23T09:28:16;59.61;50.62;71.98;;
75467;Laerm;64050;50.634;3.062;2022-11-23T09:30:43;62.48;57.53;79.90;;
75467;Laerm;64050;50.634;3.062;2022-11-23T09:33:09;64.49;52.40;90.57;;
75467;Laerm;64050;50.634;3.062;2022-11-23T09:35:34;56.67;52.71;67.28;;
75467;Laerm;64050;50.634;3.062;2022-11-23T09:37:59;59.63;52.83;71.37;;
75467;Laerm;64050;50.634;3.062;2022-11-23T09:40:32;60.87;56.28;77.74;;
75467;Laerm;64050;50.634;3.062;2022-11-23T09:45:52;61.21;50.70;81.70;;
75467;Laerm;64050;50.634;3.062;2022-11-23T09:50:49;64.24;55.56;79.80;;
75467;Laerm;64050;50.634;3.062;2022-11-23T09:53:39;61.41;49.21;75.30;;
75467;Laerm;64050;50.634;3.062;2022-11-23T09:56:02;55.42;48.31;69.24;;
75467;Laerm;64050;50.634;3.062;2022-11-23T09:58:30;61.36;55.10;77.86;;
75467;Laerm;64050;50.634;3.062;2022-11-23T10:01:00;62.59;55.14;78.41;;
75467;Laerm;64050;50.634;3.062;2022-11-23T10:03:28;58.04;48.92;75.63;;
75467;Laerm;64050;50.634;3.062;2022-11-23T10:06:01;57.44;49.57;74.64;;
75467;Laerm;64050;50.634;3.062;2022-11-23T10:13:41;62.21;53.34;84.25;;
75467;Laerm;64050;50.634;3.062;2022-11-23T10:23:49;57.27;50.80;70.31;;
75467;Laerm;64050;50.634;3.062;2022-11-23T10:26:17;59.22;50.93;76.38;;
75467;Laerm;64050;50.634;3.062;2022-11-23T10:28:44;60.64;50.27;74.92;;
75467;Laerm;64050;50.634;3.062;2022-11-23T10:31:14;58.36;48.69;79.19;;
75467;Laerm;64050;50.634;3.062;2022-11-23T10:36:16;65.13;50.69;87.52;;
75467;Laerm;64050;50.634;3.062;2022-11-23T10:38:42;58.65;49.57;85.36;;
75467;Laerm;64050;50.634;3.062;2022-11-23T10:41:10;55.36;49.00;70.81;;
75467;Laerm;64050;50.634;3.062;2022-11-23T10:48:47;65.50;59.29;85.26;;
75467;Laerm;64050;50.634;3.062;2022-11-23T10:51:13;65.48;60.29;83.80;;
75467;Laerm;64050;50.634;3.062;2022-11-23T10:53:39;64.82;60.27;82.34;;
75467;Laerm;64050;50.634;3.062;2022-11-23T10:56:04;64.30;59.22;85.18;;
75467;Laerm;64050;50.634;3.062;2022-11-23T10:58:42;60.52;54.50;71.99;;
75467;Laerm;64050;50.634;3.062;2022-11-23T11:01:13;60.28;54.35;77.42;;
75467;Laerm;64050;50.634;3.062;2022-11-23T11:03:39;61.46;56.55;80.12;;
75467;Laerm;64050;50.634;3.062;2022-11-23T11:06:04;61.46;56.41;77.24;;
75467;Laerm;64050;50.634;3.062;2022-11-23T11:08:33;61.54;56.75;80.26;;
75467;Laerm;64050;50.634;3.062;2022-11-23T11:13:31;61.14;55.12;78.53;;
75467;Laerm;64050;50.634;3.062;2022-11-23T11:16:00;58.03;54.69;69.46;;
75467;Laerm;64050;50.634;3.062;2022-11-23T11:18:27;56.01;51.67;69.53;;
75467;Laerm;64050;50.634;3.062;2022-11-23T11:20:57;57.46;52.99;65.64;;
75467;Laerm;64050;50.634;3.062;2022-11-23T11:23:23;60.55;56.41;82.47;;
75467;Laerm;64050;50.634;3.062;2022-11-23T11:25:49;59.83;57.27;64.06;;
75467;Laerm;64050;50.634;3.062;2022-11-23T11:28:19;61.75;58.98;69.43;;
75467;Laerm;64050;50.634;3.062;2022-11-23T11:30:49;59.86;57.07;65.34;;
75467;Laerm;64050;50.634;3.062;2022-11-23T11:33:23;60.97;57.72;65.93;;
75467;Laerm;64050;50.634;3.062;2022-11-23T11:35:52;59.28;56.74;62.35;;
75467;Laerm;64050;50.634;3.062;2022-11-23T11:38:21;59.37;56.57;64.73;;
75467;Laerm;64050;50.634;3.062;2022-11-23T11:40:49;59.55;55.98;66.06;;
75467;Laerm;64050;50.634;3.062;2022-11-23T11:45:43;58.63;55.82;61.69;;
75467;Laerm;64050;50.634;3.062;2022-11-23T11:48:17;58.36;55.24;62.84;;
75467;Laerm;64050;50.634;3.062;2022-11-23T11:53:13;58.53;55.58;61.85;;
75467;Laerm;64050;50.634;3.062;2022-11-23T11:58:08;57.07;52.91;61.59;;
75467;Laerm;64050;50.634;3.062;2022-11-23T12:00:34;56.75;53.37;61.40;;
75467;Laerm;64050;50.634;3.062;2022-11-23T12:03:14;56.89;53.01;74.62;;
75467;Laerm;64050;50.634;3.062;2022-11-23T12:06:03;56.65;52.73;61.89;;
75467;Laerm;64050;50.634;3.062;2022-11-23T12:08:35;56.77;52.91;67.64;;
75467;Laerm;64050;50.634;3.062;2022-11-23T12:11:04;56.36;52.79;60.14;;
75467;Laerm;64050;50.634;3.062;2022-11-23T12:13:34;56.24;52.73;60.79;;
75467;Laerm;64050;50.634;3.062;2022-11-23T12:16:13;56.88;53.27;65.78;;
75467;Laerm;64050;50.634;3.062;2022-11-23T12:26:26;59.74;56.63;71.18;;
75467;Laerm;64050;50.634;3.062;2022-11-23T12:39:20;62.77;56.28;79.45;;
75467;Laerm;64050;50.634;3.062;2022-11-23T12:52:03;59.38;54.31;70.06;;
75467;Laerm;64050;50.634;3.062;2022-11-23T12:54:38;61.53;55.05;78.29;;
75467;Laerm;64050;50.634;3.062;2022-11-23T12:57:13;62.82;55.14;80.22;;
75467;Laerm;64050;50.634;3.062;2022-11-23T13:02:14;61.17;54.99;76.08;;
75467;Laerm;64050;50.634;3.062;2022-11-23T13:18:39;61.59;54.18;78.89;;
75467;Laerm;64050;50.634;3.062;2022-11-23T13:21:07;62.48;58.57;72.73;;
75467;Laerm;64050;50.634;3.062;2022-11-23T13:23:35;61.68;54.79;78.37;;
75467;Laerm;64050;50.634;3.062;2022-11-23T13:28:48;60.11;55.94;71.82;;
75467;Laerm;64050;50.634;3.062;2022-11-23T13:33:39;57.22;51.89;78.08;;
75467;Laerm;64050;50.634;3.062;2022-11-23T13:36:08;57.55;52.98;71.35;;
75467;Laerm;64050;50.634;3.062;2022-11-23T13:38:35;57.22;53.23;67.73;;
75467;Laerm;64050;50.634;3.062;2022-11-23T13:41:00;57.03;52.89;69.95;;
75467;Laerm;64050;50.634;3.062;2022-11-23T13:43:28;56.89;52.58;67.35;;
75467;Laerm;64050;50.634;3.062;2022-11-23T13:46:26;57.52;53.10;68.68;;
75467;Laerm;64050;50.634;3.062;2022-11-23T13:48:46;56.60;48.98;73.33;;
75467;Laerm;64050;50.634;3.062;2022-11-23T13:51:12;56.66;50.95;65.45;;
75467;Laerm;64050;50.634;3.062;2022-11-23T13:53:49;56.45;50.08;71.48;;
75467;Laerm;64050;50.634;3.062;2022-11-23T14:04:19;60.30;50.03;73.40;;
75467;Laerm;64050;50.634;3.062;2022-11-23T14:06:49;59.23;51.71;70.83;;
75467;Laerm;64050;50.634;3.062;2022-11-23T14:11:54;62.15;49.22;91.06;;
75467;Laerm;64050;50.634;3.062;2022-11-23T14:14:23;57.46;47.01;76.19;;
75467;Laerm;64050;50.634;3.062;2022-11-23T14:22:25;61.35;50.39;71.33;;
75467;Laerm;64050;50.634;3.062;2022-11-23T14:27:39;61.22;49.87;80.78;;
75467;Laerm;64050;50.634;3.062;2022-11-23T14:43:20;59.56;47.94;79.44;;
75467;Laerm;64050;50.634;3.062;2022-11-23T14:45:46;65.19;46.94;95.47;;
75467;Laerm;64050;50.634;3.062;2022-11-23T14:48:21;56.09;47.29;82.08;;
75467;Laerm;64050;50.634;3.062;2022-11-23T14:50:56;55.04;47.75;72.94;;
75467;Laerm;64050;50.634;3.062;2022-11-23T14:53:26;52.71;47.75;69.26;;
75467;Laerm;64050;50.634;3.062;2022-11-23T14:55:51;53.86;47.69;74.54;;
75467;Laerm;64050;50.634;3.062;2022-11-23T14:58:17;54.08;47.47;73.52;;
75467;Laerm;64050;50.634;3.062;2022-11-23T15:00:43;61.85;47.58;83.07;;
75467;Laerm;64050;50.634;3.062;2022-11-23T15:03:11;57.04;47.51;75.68;;
75467;Laerm;64050;50.634;3.062;2022-11-23T15:05:41;58.28;47.38;75.58;;
75467;Laerm;64050;50.634;3.062;2022-11-23T15:08:11;52.98;47.07;67.97;;
75467;Laerm;64050;50.634;3.062;2022-11-23T15:10:43;57.79;48.51;78.60;;
75467;Laerm;64050;50.634;3.062;2022-11-23T15:13:18;54.06;48.09;71.25;;
75467;Laerm;64050;50.634;3.062;2022-11-23T15:15:44;58.32;47.77;79.75;;
75467;Laerm;64050;50.634;3.062;2022-11-23T15:18:10;60.58;47.52;79.72;;
75467;Laerm;64050;50.634;3.062;2022-11-23T15:20:45;57.11;46.82;76.22;;
75467;Laerm;64050;50.634;3.062;2022-11-23T15:23:16;53.98;47.14;72.54;;
75467;Laerm;64050;50.634;3.062;2022-11-23T15:25:50;51.92;47.78;63.35;;
75467;Laerm;64050;50.634;3.062;2022-11-23T15:28:15;51.37;47.46;63.12;;
75467;Laerm;64050;50.634;3.062;2022-11-23T15:30:41;52.56;47.32;66.43;;
75467;Laerm;64050;50.634;3.062;2022-11-23T15:33:08;52.23;47.60;62.04;;
75467;Laerm;64050;50.634;3.062;2022-11-23T15:35:35;51.28;47.32;62.49;;
75467;Laerm;64050;50.634;3.062;2022-11-23T15:38:02;52.55;46.95;65.16;;
75467;Laerm;64050;50.634;3.062;2022-11-23T15:40:37;54.00;47.43;63.49;;
75467;Laerm;64050;50.634;3.062;2022-11-23T15:43:04;60.13;47.80;83.80;;
75467;Laerm;64050;50.634;3.062;2022-11-23T15:48:28;53.06;48.40;64.73;;
75467;Laerm;64050;50.634;3.062;2022-11-23T15:50:55;52.79;48.36;62.43;;